sensor_id;sensor_type;location;lat;lon;timestamp;temperature;humidity
21481;DHT22;10902;48.158;8.634;2024-03-08T00:02:37;0.20;99.90
21481;DHT22;10902;48.158;8.634;2024-03-08T00:05:22;0.00;99.90
21481;DHT22;10902;48.158;8.634;2024-03-08T00:08:09;-0.20;99.90
21481;DHT22;10902;48.158;8.634;2024-03-08T00:10:55;-0.10;99.90
21481;DHT22;10902;48.158;8.634;2024-03-08T00:13:40;0.00;99.90
21481;DHT22;10902;48.158;8.634;2024-03-08T00:16:27;0.00;99.90
21481;DHT22;10902;48.158;8.634;2024-03-08T00:19:13;0.00;99.90
21481;DHT22;10902;48.158;8.634;2024-03-08T00:21:58;0.10;99.90
21481;DHT22;10902;48.158;8.634;2024-03-08T00:24:44;0.10;99.90
21481;DHT22;10902;48.158;8.634;2024-03-08T00:27:29;-0.10;99.90
21481;DHT22;10902;48.158;8.634;2024-03-08T00:30:18;-0.20;99.90
21481;DHT22;10902;48.158;8.634;2024-03-08T00:33:03;-0.30;99.90
21481;DHT22;10902;48.158;8.634;2024-03-08T00:35:49;-0.10;99.90
21481;DHT22;10902;48.158;8.634;2024-03-08T00:38:34;-0.40;99.90
21481;DHT22;10902;48.158;8.634;2024-03-08T00:41:20;-0.60;99.90
21481;DHT22;10902;48.158;8.634;2024-03-08T00:44:05;-0.70;99.90
21481;DHT22;10902;48.158;8.634;2024-03-08T00:46:51;-0.80;99.90
21481;DHT22;10902;48.158;8.634;2024-03-08T00:49:37;-1.00;99.90
21481;DHT22;10902;48.158;8.634;2024-03-08T00:52:23;-0.80;99.90
21481;DHT22;10902;48.158;8.634;2024-03-08T00:55:12;-1.00;99.90
21481;DHT22;10902;48.158;8.634;2024-03-08T00:57:57;-1.10;99.90
21481;DHT22;10902;48.158;8.634;2024-03-08T01:00:43;-1.30;99.90
21481;DHT22;10902;48.158;8.634;2024-03-08T01:03:30;-1.30;99.90
21481;DHT22;10902;48.158;8.634;2024-03-08T01:06:17;-1.20;99.90
21481;DHT22;10902;48.158;8.634;2024-03-08T01:09:02;-1.00;99.90
21481;DHT22;10902;48.158;8.634;2024-03-08T01:11:48;-1.00;99.90
21481;DHT22;10902;48.158;8.634;2024-03-08T01:14:35;-1.30;99.90
21481;DHT22;10902;48.158;8.634;2024-03-08T01:17:20;-1.20;99.90
21481;DHT22;10902;48.158;8.634;2024-03-08T01:20:07;-1.40;99.90
21481;DHT22;10902;48.158;8.634;2024-03-08T01:22:56;-1.40;99.90
21481;DHT22;10902;48.158;8.634;2024-03-08T01:25:41;-1.40;99.90
21481;DHT22;10902;48.158;8.634;2024-03-08T01:28:29;-1.20;99.90
21481;DHT22;10902;48.158;8.634;2024-03-08T01:31:15;-1.30;99.90
21481;DHT22;10902;48.158;8.634;2024-03-08T01:34:01;-1.40;99.90
21481;DHT22;10902;48.158;8.634;2024-03-08T01:36:47;-1.40;99.90
21481;DHT22;10902;48.158;8.634;2024-03-08T01:39:32;-1.40;99.90
21481;DHT22;10902;48.158;8.634;2024-03-08T01:42:18;-1.20;99.90
21481;DHT22;10902;48.158;8.634;2024-03-08T01:45:05;-1.20;99.90
21481;DHT22;10902;48.158;8.634;2024-03-08T01:47:51;-1.30;99.90
21481;DHT22;10902;48.158;8.634;2024-03-08T01:50:37;-1.10;99.90
21481;DHT22;10902;48.158;8.634;2024-03-08T01:53:24;-1.10;99.90
21481;DHT22;10902;48.158;8.634;2024-03-08T01:56:12;-1.00;99.90
21481;DHT22;10902;48.158;8.634;2024-03-08T01:58:59;-0.90;99.90
21481;DHT22;10902;48.158;8.634;2024-03-08T02:01:45;-0.90;99.90
21481;DHT22;10902;48.158;8.634;2024-03-08T02:04:30;-0.90;99.90
21481;DHT22;10902;48.158;8.634;2024-03-08T02:07:16;-0.80;99.90
21481;DHT22;10902;48.158;8.634;2024-03-08T02:10:02;-0.80;99.90
21481;DHT22;10902;48.158;8.634;2024-03-08T02:12:47;-0.90;99.90
21481;DHT22;10902;48.158;8.634;2024-03-08T02:16:01;-1.10;99.90
21481;DHT22;10902;48.158;8.634;2024-03-08T02:18:47;-1.00;99.90
21481;DHT22;10902;48.158;8.634;2024-03-08T02:21:33;-1.20;99.90
21481;DHT22;10902;48.158;8.634;2024-03-08T02:24:19;-1.40;99.90
21481;DHT22;10902;48.158;8.634;2024-03-08T02:27:05;-1.30;99.90
21481;DHT22;10902;48.158;8.634;2024-03-08T02:29:52;-1.20;99.90
21481;DHT22;10902;48.158;8.634;2024-03-08T02:32:41;-1.30;99.90
21481;DHT22;10902;48.158;8.634;2024-03-08T02:35:26;-1.30;99.90
21481;DHT22;10902;48.158;8.634;2024-03-08T02:38:13;-1.30;99.90
21481;DHT22;10902;48.158;8.634;2024-03-08T02:41:01;-1.30;99.90
21481;DHT22;10902;48.158;8.634;2024-03-08T02:43:49;-1.40;99.90
21481;DHT22;10902;48.158;8.634;2024-03-08T02:46:35;-1.20;99.90
21481;DHT22;10902;48.158;8.634;2024-03-08T02:49:21;-1.10;99.90
21481;DHT22;10902;48.158;8.634;2024-03-08T02:52:07;-1.00;99.90
21481;DHT22;10902;48.158;8.634;2024-03-08T02:54:52;-1.00;99.90
21481;DHT22;10902;48.158;8.634;2024-03-08T02:57:38;-0.90;99.90
21481;DHT22;10902;48.158;8.634;2024-03-08T03:00:24;-0.90;99.90
21481;DHT22;10902;48.158;8.634;2024-03-08T03:03:09;-0.90;99.90
21481;DHT22;10902;48.158;8.634;2024-03-08T03:05:55;-0.80;99.90
21481;DHT22;10902;48.158;8.634;2024-03-08T03:08:41;-0.80;99.90
21481;DHT22;10902;48.158;8.634;2024-03-08T03:11:29;-0.80;99.90
21481;DHT22;10902;48.158;8.634;2024-03-08T03:14:15;-0.80;99.90
21481;DHT22;10902;48.158;8.634;2024-03-08T03:17:01;-0.70;99.90
21481;DHT22;10902;48.158;8.634;2024-03-08T03:19:48;-0.70;99.90
21481;DHT22;10902;48.158;8.634;2024-03-08T03:22:33;-0.70;99.90
21481;DHT22;10902;48.158;8.634;2024-03-08T03:25:20;-0.70;99.90
21481;DHT22;10902;48.158;8.634;2024-03-08T03:28:10;-0.70;99.90
21481;DHT22;10902;48.158;8.634;2024-03-08T03:30:59;-0.60;99.90
21481;DHT22;10902;48.158;8.634;2024-03-08T03:33:47;-0.60;99.90
21481;DHT22;10902;48.158;8.634;2024-03-08T03:36:32;-0.50;99.90
21481;DHT22;10902;48.158;8.634;2024-03-08T03:39:20;-0.50;99.90
21481;DHT22;10902;48.158;8.634;2024-03-08T03:42:07;-0.30;99.90
21481;DHT22;10902;48.158;8.634;2024-03-08T03:44:53;-0.10;99.90
21481;DHT22;10902;48.158;8.634;2024-03-08T03:47:39;-0.10;99.90
21481;DHT22;10902;48.158;8.634;2024-03-08T03:50:24;-0.10;99.90
21481;DHT22;10902;48.158;8.634;2024-03-08T03:53:10;-0.10;99.90
21481;DHT22;10902;48.158;8.634;2024-03-08T03:55:55;-0.10;99.90
21481;DHT22;10902;48.158;8.634;2024-03-08T03:58:43;-0.30;99.90
21481;DHT22;10902;48.158;8.634;2024-03-08T04:01:28;-0.30;99.90
21481;DHT22;10902;48.158;8.634;2024-03-08T04:04:15;-0.40;99.90
21481;DHT22;10902;48.158;8.634;2024-03-08T04:07:01;-0.40;99.90
21481;DHT22;10902;48.158;8.634;2024-03-08T04:09:47;-0.30;99.90
21481;DHT22;10902;48.158;8.634;2024-03-08T04:12:34;-0.30;99.90
21481;DHT22;10902;48.158;8.634;2024-03-08T04:15:19;-0.30;99.90
21481;DHT22;10902;48.158;8.634;2024-03-08T04:18:05;-0.20;99.90
21481;DHT22;10902;48.158;8.634;2024-03-08T04:20:51;-0.20;99.90
21481;DHT22;10902;48.158;8.634;2024-03-08T04:23:37;-0.20;99.90
21481;DHT22;10902;48.158;8.634;2024-03-08T04:26:23;-0.30;99.90
21481;DHT22;10902;48.158;8.634;2024-03-08T04:29:08;-0.30;99.90
21481;DHT22;10902;48.158;8.634;2024-03-08T04:31:54;-0.40;99.90
21481;DHT22;10902;48.158;8.634;2024-03-08T04:34:39;-0.40;99.90
21481;DHT22;10902;48.158;8.634;2024-03-08T04:37:25;-0.30;99.90
21481;DHT22;10902;48.158;8.634;2024-03-08T04:40:11;-0.30;99.90
21481;DHT22;10902;48.158;8.634;2024-03-08T04:42:57;-0.20;99.90
21481;DHT22;10902;48.158;8.634;2024-03-08T04:45:44;-0.10;99.90
21481;DHT22;10902;48.158;8.634;2024-03-08T04:48:30;0.00;99.90
21481;DHT22;10902;48.158;8.634;2024-03-08T04:51:15;0.00;99.90
21481;DHT22;10902;48.158;8.634;2024-03-08T04:54:01;0.00;99.90
21481;DHT22;10902;48.158;8.634;2024-03-08T04:56:47;-0.10;99.90
21481;DHT22;10902;48.158;8.634;2024-03-08T04:59:32;0.00;99.90
21481;DHT22;10902;48.158;8.634;2024-03-08T05:02:18;0.00;99.90
21481;DHT22;10902;48.158;8.634;2024-03-08T05:05:04;0.00;99.90
21481;DHT22;10902;48.158;8.634;2024-03-08T05:07:50;0.10;99.90
21481;DHT22;10902;48.158;8.634;2024-03-08T05:10:36;0.00;99.90
21481;DHT22;10902;48.158;8.634;2024-03-08T05:13:21;0.00;99.90
21481;DHT22;10902;48.158;8.634;2024-03-08T05:16:07;0.00;99.90
21481;DHT22;10902;48.158;8.634;2024-03-08T05:18:52;0.00;99.90
21481;DHT22;10902;48.158;8.634;2024-03-08T05:21:38;0.10;99.90
21481;DHT22;10902;48.158;8.634;2024-03-08T05:24:24;0.10;99.90
21481;DHT22;10902;48.158;8.634;2024-03-08T05:27:10;0.10;99.90
21481;DHT22;10902;48.158;8.634;2024-03-08T05:29:55;0.20;99.90
21481;DHT22;10902;48.158;8.634;2024-03-08T05:32:41;0.20;99.90
21481;DHT22;10902;48.158;8.634;2024-03-08T05:35:30;0.10;99.90
21481;DHT22;10902;48.158;8.634;2024-03-08T05:38:15;0.00;99.90
21481;DHT22;10902;48.158;8.634;2024-03-08T05:41:01;0.00;99.90
21481;DHT22;10902;48.158;8.634;2024-03-08T05:43:47;0.00;99.90
21481;DHT22;10902;48.158;8.634;2024-03-08T05:46:33;0.00;99.90
21481;DHT22;10902;48.158;8.634;2024-03-08T05:49:19;0.00;99.90
21481;DHT22;10902;48.158;8.634;2024-03-08T05:52:04;0.10;99.90
21481;DHT22;10902;48.158;8.634;2024-03-08T05:54:50;0.00;99.90
21481;DHT22;10902;48.158;8.634;2024-03-08T05:57:36;0.00;99.90
21481;DHT22;10902;48.158;8.634;2024-03-08T06:00:25;0.00;99.90
21481;DHT22;10902;48.158;8.634;2024-03-08T06:03:11;-0.10;99.90
21481;DHT22;10902;48.158;8.634;2024-03-08T06:05:57;0.00;99.90
21481;DHT22;10902;48.158;8.634;2024-03-08T06:08:43;0.00;99.90
21481;DHT22;10902;48.158;8.634;2024-03-08T06:11:29;0.00;99.90
21481;DHT22;10902;48.158;8.634;2024-03-08T06:14:17;0.10;99.90
21481;DHT22;10902;48.158;8.634;2024-03-08T06:17:04;0.00;99.90
21481;DHT22;10902;48.158;8.634;2024-03-08T06:19:52;0.00;99.90
21481;DHT22;10902;48.158;8.634;2024-03-08T06:22:40;0.00;99.90
21481;DHT22;10902;48.158;8.634;2024-03-08T06:25:29;0.00;99.90
21481;DHT22;10902;48.158;8.634;2024-03-08T06:28:15;0.00;99.90
21481;DHT22;10902;48.158;8.634;2024-03-08T06:31:01;0.00;99.90
21481;DHT22;10902;48.158;8.634;2024-03-08T06:33:47;0.00;99.90
21481;DHT22;10902;48.158;8.634;2024-03-08T06:36:35;0.00;99.90
21481;DHT22;10902;48.158;8.634;2024-03-08T06:39:20;0.00;99.90
21481;DHT22;10902;48.158;8.634;2024-03-08T06:42:06;0.00;99.90
21481;DHT22;10902;48.158;8.634;2024-03-08T06:44:52;0.00;99.90
21481;DHT22;10902;48.158;8.634;2024-03-08T06:47:40;0.00;99.90
21481;DHT22;10902;48.158;8.634;2024-03-08T06:50:27;0.10;99.90
21481;DHT22;10902;48.158;8.634;2024-03-08T06:53:13;0.20;99.90
21481;DHT22;10902;48.158;8.634;2024-03-08T06:55:58;0.30;99.90
21481;DHT22;10902;48.158;8.634;2024-03-08T06:58:44;0.40;99.90
21481;DHT22;10902;48.158;8.634;2024-03-08T07:01:30;0.40;99.90
21481;DHT22;10902;48.158;8.634;2024-03-08T07:04:21;0.20;99.90
21481;DHT22;10902;48.158;8.634;2024-03-08T07:07:09;0.10;99.90
21481;DHT22;10902;48.158;8.634;2024-03-08T07:09:55;0.00;99.90
21481;DHT22;10902;48.158;8.634;2024-03-08T07:12:42;0.10;99.90
21481;DHT22;10902;48.158;8.634;2024-03-08T07:15:28;0.10;99.90
21481;DHT22;10902;48.158;8.634;2024-03-08T07:18:13;0.10;99.90
21481;DHT22;10902;48.158;8.634;2024-03-08T07:21:00;0.20;99.90
21481;DHT22;10902;48.158;8.634;2024-03-08T07:23:47;0.10;99.90
21481;DHT22;10902;48.158;8.634;2024-03-08T07:26:48;0.20;99.90
21481;DHT22;10902;48.158;8.634;2024-03-08T07:29:35;0.20;99.90
21481;DHT22;10902;48.158;8.634;2024-03-08T07:32:21;0.20;99.90
21481;DHT22;10902;48.158;8.634;2024-03-08T07:35:07;0.30;99.90
21481;DHT22;10902;48.158;8.634;2024-03-08T07:37:52;0.30;99.90
21481;DHT22;10902;48.158;8.634;2024-03-08T07:40:40;0.30;99.90
21481;DHT22;10902;48.158;8.634;2024-03-08T07:43:29;0.20;99.90
21481;DHT22;10902;48.158;8.634;2024-03-08T07:46:15;0.20;99.90
21481;DHT22;10902;48.158;8.634;2024-03-08T07:49:00;0.40;99.90
21481;DHT22;10902;48.158;8.634;2024-03-08T07:51:46;0.40;99.90
21481;DHT22;10902;48.158;8.634;2024-03-08T07:54:31;0.40;99.90
21481;DHT22;10902;48.158;8.634;2024-03-08T07:57:17;0.50;99.90
21481;DHT22;10902;48.158;8.634;2024-03-08T08:00:04;0.60;99.90
21481;DHT22;10902;48.158;8.634;2024-03-08T08:02:53;0.70;99.90
21481;DHT22;10902;48.158;8.634;2024-03-08T08:05:39;0.80;99.90
21481;DHT22;10902;48.158;8.634;2024-03-08T08:08:24;0.70;99.90
21481;DHT22;10902;48.158;8.634;2024-03-08T08:11:11;0.80;99.90
21481;DHT22;10902;48.158;8.634;2024-03-08T08:13:57;0.90;99.90
21481;DHT22;10902;48.158;8.634;2024-03-08T08:16:42;1.10;99.90
21481;DHT22;10902;48.158;8.634;2024-03-08T08:19:30;1.20;99.90
21481;DHT22;10902;48.158;8.634;2024-03-08T08:22:17;1.20;99.90
21481;DHT22;10902;48.158;8.634;2024-03-08T08:25:03;1.40;99.90
21481;DHT22;10902;48.158;8.634;2024-03-08T08:27:49;1.60;99.90
21481;DHT22;10902;48.158;8.634;2024-03-08T08:30:35;1.10;99.90
21481;DHT22;10902;48.158;8.634;2024-03-08T08:33:20;1.40;99.90
21481;DHT22;10902;48.158;8.634;2024-03-08T08:36:06;1.30;99.90
21481;DHT22;10902;48.158;8.634;2024-03-08T08:38:52;1.20;99.90
21481;DHT22;10902;48.158;8.634;2024-03-08T08:41:40;1.20;99.90
21481;DHT22;10902;48.158;8.634;2024-03-08T08:44:26;1.20;99.90
21481;DHT22;10902;48.158;8.634;2024-03-08T08:47:12;1.10;99.90
21481;DHT22;10902;48.158;8.634;2024-03-08T08:49:58;1.10;99.90
21481;DHT22;10902;48.158;8.634;2024-03-08T08:52:44;1.10;99.90
21481;DHT22;10902;48.158;8.634;2024-03-08T08:55:30;1.10;99.90
21481;DHT22;10902;48.158;8.634;2024-03-08T08:58:16;1.10;99.90
21481;DHT22;10902;48.158;8.634;2024-03-08T09:01:02;1.00;99.90
21481;DHT22;10902;48.158;8.634;2024-03-08T09:03:47;1.10;99.90
21481;DHT22;10902;48.158;8.634;2024-03-08T09:06:33;1.40;99.90
21481;DHT22;10902;48.158;8.634;2024-03-08T09:09:18;1.80;99.90
21481;DHT22;10902;48.158;8.634;2024-03-08T09:12:04;2.30;99.90
21481;DHT22;10902;48.158;8.634;2024-03-08T09:14:49;1.80;99.90
21481;DHT22;10902;48.158;8.634;2024-03-08T09:17:35;1.90;99.90
21481;DHT22;10902;48.158;8.634;2024-03-08T09:20:21;1.70;99.90
21481;DHT22;10902;48.158;8.634;2024-03-08T09:23:07;1.60;99.90
21481;DHT22;10902;48.158;8.634;2024-03-08T09:25:53;2.00;99.90
21481;DHT22;10902;48.158;8.634;2024-03-08T09:28:39;2.20;99.90
21481;DHT22;10902;48.158;8.634;2024-03-08T09:31:25;2.40;99.90
21481;DHT22;10902;48.158;8.634;2024-03-08T09:34:11;2.60;99.90
21481;DHT22;10902;48.158;8.634;2024-03-08T09:36:56;2.80;99.90
21481;DHT22;10902;48.158;8.634;2024-03-08T09:39:43;2.80;99.90
21481;DHT22;10902;48.158;8.634;2024-03-08T09:42:30;3.50;99.90
21481;DHT22;10902;48.158;8.634;2024-03-08T09:45:17;3.60;99.90
21481;DHT22;10902;48.158;8.634;2024-03-08T09:48:03;3.20;99.90
21481;DHT22;10902;48.158;8.634;2024-03-08T09:50:49;3.50;99.90
21481;DHT22;10902;48.158;8.634;2024-03-08T09:53:35;3.60;99.90
21481;DHT22;10902;48.158;8.634;2024-03-08T09:56:22;3.80;99.90
21481;DHT22;10902;48.158;8.634;2024-03-08T09:59:09;3.40;99.90
21481;DHT22;10902;48.158;8.634;2024-03-08T10:01:57;3.40;99.90
21481;DHT22;10902;48.158;8.634;2024-03-08T10:04:44;3.70;99.90
21481;DHT22;10902;48.158;8.634;2024-03-08T10:07:33;4.60;99.90
21481;DHT22;10902;48.158;8.634;2024-03-08T10:10:20;5.10;99.90
21481;DHT22;10902;48.158;8.634;2024-03-08T10:13:10;4.80;99.90
21481;DHT22;10902;48.158;8.634;2024-03-08T10:15:55;5.90;99.90
21481;DHT22;10902;48.158;8.634;2024-03-08T10:18:41;5.50;99.90
21481;DHT22;10902;48.158;8.634;2024-03-08T10:21:27;5.00;99.90
21481;DHT22;10902;48.158;8.634;2024-03-08T10:24:13;5.40;99.90
21481;DHT22;10902;48.158;8.634;2024-03-08T10:27:02;6.30;99.90
21481;DHT22;10902;48.158;8.634;2024-03-08T10:29:49;7.60;99.90
21481;DHT22;10902;48.158;8.634;2024-03-08T10:32:37;8.00;99.90
21481;DHT22;10902;48.158;8.634;2024-03-08T10:35:23;9.20;99.90
21481;DHT22;10902;48.158;8.634;2024-03-08T10:38:14;10.00;99.90
21481;DHT22;10902;48.158;8.634;2024-03-08T10:41:02;11.10;99.90
21481;DHT22;10902;48.158;8.634;2024-03-08T10:44:05;11.40;99.90
21481;DHT22;10902;48.158;8.634;2024-03-08T10:47:07;11.20;99.90
21481;DHT22;10902;48.158;8.634;2024-03-08T10:50:19;12.30;99.90
21481;DHT22;10902;48.158;8.634;2024-03-08T10:53:08;12.00;99.90
21481;DHT22;10902;48.158;8.634;2024-03-08T10:55:57;11.90;99.90
21481;DHT22;10902;48.158;8.634;2024-03-08T10:58:43;12.90;99.90
21481;DHT22;10902;48.158;8.634;2024-03-08T11:01:30;13.10;99.90
21481;DHT22;10902;48.158;8.634;2024-03-08T11:04:15;13.20;99.90
21481;DHT22;10902;48.158;8.634;2024-03-08T11:07:02;13.50;99.90
21481;DHT22;10902;48.158;8.634;2024-03-08T11:10:02;13.30;99.90
21481;DHT22;10902;48.158;8.634;2024-03-08T11:12:52;12.80;99.90
21481;DHT22;10902;48.158;8.634;2024-03-08T11:15:39;11.90;99.90
21481;DHT22;10902;48.158;8.634;2024-03-08T11:18:26;12.20;99.90
21481;DHT22;10902;48.158;8.634;2024-03-08T11:21:11;12.20;99.90
21481;DHT22;10902;48.158;8.634;2024-03-08T11:24:07;12.90;99.90
21481;DHT22;10902;48.158;8.634;2024-03-08T11:26:59;13.40;99.90
21481;DHT22;10902;48.158;8.634;2024-03-08T11:29:45;13.60;99.90
21481;DHT22;10902;48.158;8.634;2024-03-08T11:32:30;13.90;99.90
21481;DHT22;10902;48.158;8.634;2024-03-08T11:35:22;14.70;99.90
21481;DHT22;10902;48.158;8.634;2024-03-08T11:38:09;15.40;99.90
21481;DHT22;10902;48.158;8.634;2024-03-08T11:40:57;15.90;99.90
21481;DHT22;10902;48.158;8.634;2024-03-08T11:43:42;17.10;99.90
21481;DHT22;10902;48.158;8.634;2024-03-08T11:46:28;16.30;99.90
21481;DHT22;10902;48.158;8.634;2024-03-08T11:49:14;16.20;99.90
21481;DHT22;10902;48.158;8.634;2024-03-08T11:51:59;15.50;99.90
21481;DHT22;10902;48.158;8.634;2024-03-08T11:54:53;16.70;99.90
21481;DHT22;10902;48.158;8.634;2024-03-08T11:57:39;17.50;99.90
21481;DHT22;10902;48.158;8.634;2024-03-08T12:00:25;16.70;99.90
21481;DHT22;10902;48.158;8.634;2024-03-08T12:03:11;16.80;99.90
21481;DHT22;10902;48.158;8.634;2024-03-08T12:05:57;16.90;99.90
21481;DHT22;10902;48.158;8.634;2024-03-08T12:08:46;16.80;99.90
21481;DHT22;10902;48.158;8.634;2024-03-08T12:11:34;16.50;99.90
21481;DHT22;10902;48.158;8.634;2024-03-08T12:14:21;16.60;99.90
21481;DHT22;10902;48.158;8.634;2024-03-08T12:17:07;17.00;99.90
21481;DHT22;10902;48.158;8.634;2024-03-08T12:19:55;16.20;99.90
21481;DHT22;10902;48.158;8.634;2024-03-08T12:22:42;15.90;99.90
21481;DHT22;10902;48.158;8.634;2024-03-08T12:25:31;16.10;99.90
21481;DHT22;10902;48.158;8.634;2024-03-08T12:28:19;15.80;99.90
21481;DHT22;10902;48.158;8.634;2024-03-08T12:31:07;16.00;99.90
21481;DHT22;10902;48.158;8.634;2024-03-08T12:33:56;16.50;99.90
21481;DHT22;10902;48.158;8.634;2024-03-08T12:36:48;16.60;99.90
21481;DHT22;10902;48.158;8.634;2024-03-08T12:39:35;17.10;99.90
21481;DHT22;10902;48.158;8.634;2024-03-08T12:42:21;17.70;99.90
21481;DHT22;10902;48.158;8.634;2024-03-08T12:45:08;17.50;99.90
21481;DHT22;10902;48.158;8.634;2024-03-08T12:47:56;16.90;99.90
21481;DHT22;10902;48.158;8.634;2024-03-08T12:50:41;16.90;99.90
21481;DHT22;10902;48.158;8.634;2024-03-08T12:53:33;16.70;99.90
21481;DHT22;10902;48.158;8.634;2024-03-08T12:56:32;16.30;99.90
21481;DHT22;10902;48.158;8.634;2024-03-08T12:59:18;16.60;99.90
21481;DHT22;10902;48.158;8.634;2024-03-08T13:02:03;17.30;99.90
21481;DHT22;10902;48.158;8.634;2024-03-08T13:04:51;17.90;99.90
21481;DHT22;10902;48.158;8.634;2024-03-08T13:07:43;18.20;99.90
21481;DHT22;10902;48.158;8.634;2024-03-08T13:10:31;18.60;99.90
21481;DHT22;10902;48.158;8.634;2024-03-08T13:13:17;18.70;99.90
21481;DHT22;10902;48.158;8.634;2024-03-08T13:16:03;18.40;99.90
21481;DHT22;10902;48.158;8.634;2024-03-08T13:18:48;19.20;99.90
21481;DHT22;10902;48.158;8.634;2024-03-08T13:21:34;19.90;99.90
21481;DHT22;10902;48.158;8.634;2024-03-08T13:24:20;19.70;99.90
21481;DHT22;10902;48.158;8.634;2024-03-08T13:27:08;19.50;99.90
21481;DHT22;10902;48.158;8.634;2024-03-08T13:30:05;19.10;99.90
21481;DHT22;10902;48.158;8.634;2024-03-08T13:32:52;18.70;99.90
21481;DHT22;10902;48.158;8.634;2024-03-08T13:35:38;19.80;99.90
21481;DHT22;10902;48.158;8.634;2024-03-08T13:38:26;20.60;99.90
21481;DHT22;10902;48.158;8.634;2024-03-08T13:41:12;20.10;99.90
21481;DHT22;10902;48.158;8.634;2024-03-08T13:43:59;19.70;99.90
21481;DHT22;10902;48.158;8.634;2024-03-08T13:46:47;18.70;99.90
21481;DHT22;10902;48.158;8.634;2024-03-08T13:49:32;19.70;99.90
21481;DHT22;10902;48.158;8.634;2024-03-08T13:52:18;19.60;99.90
21481;DHT22;10902;48.158;8.634;2024-03-08T13:55:05;19.60;99.90
21481;DHT22;10902;48.158;8.634;2024-03-08T13:57:51;19.90;99.90
21481;DHT22;10902;48.158;8.634;2024-03-08T14:00:36;19.50;99.90
21481;DHT22;10902;48.158;8.634;2024-03-08T14:03:22;19.70;99.90
21481;DHT22;10902;48.158;8.634;2024-03-08T14:06:10;19.90;99.90
21481;DHT22;10902;48.158;8.634;2024-03-08T14:08:56;19.50;99.90
21481;DHT22;10902;48.158;8.634;2024-03-08T14:11:43;19.70;99.90
21481;DHT22;10902;48.158;8.634;2024-03-08T14:14:32;18.70;99.90
21481;DHT22;10902;48.158;8.634;2024-03-08T14:17:19;18.10;99.90
21481;DHT22;10902;48.158;8.634;2024-03-08T14:20:06;17.10;99.90
21481;DHT22;10902;48.158;8.634;2024-03-08T14:22:53;17.10;99.90
21481;DHT22;10902;48.158;8.634;2024-03-08T14:25:38;17.90;99.90
21481;DHT22;10902;48.158;8.634;2024-03-08T14:28:24;18.60;99.90
21481;DHT22;10902;48.158;8.634;2024-03-08T14:31:09;17.70;99.90
21481;DHT22;10902;48.158;8.634;2024-03-08T14:33:57;17.20;99.90
21481;DHT22;10902;48.158;8.634;2024-03-08T14:36:44;18.60;99.90
21481;DHT22;10902;48.158;8.634;2024-03-08T14:39:29;19.80;99.90
21481;DHT22;10902;48.158;8.634;2024-03-08T14:42:15;20.70;99.90
21481;DHT22;10902;48.158;8.634;2024-03-08T14:45:01;20.70;99.90
21481;DHT22;10902;48.158;8.634;2024-03-08T14:47:47;18.40;99.90
21481;DHT22;10902;48.158;8.634;2024-03-08T14:50:35;16.00;99.90
21481;DHT22;10902;48.158;8.634;2024-03-08T14:53:22;17.30;99.90
21481;DHT22;10902;48.158;8.634;2024-03-08T14:56:08;19.20;99.90
21481;DHT22;10902;48.158;8.634;2024-03-08T14:58:54;17.00;99.90
21481;DHT22;10902;48.158;8.634;2024-03-08T15:01:40;14.70;99.90
21481;DHT22;10902;48.158;8.634;2024-03-08T15:04:28;14.30;99.90
21481;DHT22;10902;48.158;8.634;2024-03-08T15:07:14;16.20;99.90
21481;DHT22;10902;48.158;8.634;2024-03-08T15:10:00;17.10;99.90
21481;DHT22;10902;48.158;8.634;2024-03-08T15:12:46;16.50;99.90
21481;DHT22;10902;48.158;8.634;2024-03-08T15:15:32;16.40;99.90
21481;DHT22;10902;48.158;8.634;2024-03-08T15:18:17;17.50;99.90
21481;DHT22;10902;48.158;8.634;2024-03-08T15:21:04;16.80;99.90
21481;DHT22;10902;48.158;8.634;2024-03-08T15:23:53;17.60;99.90
21481;DHT22;10902;48.158;8.634;2024-03-08T15:26:39;17.50;99.90
21481;DHT22;10902;48.158;8.634;2024-03-08T15:29:25;17.10;99.90
21481;DHT22;10902;48.158;8.634;2024-03-08T15:32:11;17.40;99.90
21481;DHT22;10902;48.158;8.634;2024-03-08T15:35:04;17.40;98.40
21481;DHT22;10902;48.158;8.634;2024-03-08T15:37:49;17.20;97.80
21481;DHT22;10902;48.158;8.634;2024-03-08T15:40:35;17.20;97.40
21481;DHT22;10902;48.158;8.634;2024-03-08T15:43:21;16.40;97.40
21481;DHT22;10902;48.158;8.634;2024-03-08T15:46:08;14.90;97.70
21481;DHT22;10902;48.158;8.634;2024-03-08T15:48:54;13.90;99.80
21481;DHT22;10902;48.158;8.634;2024-03-08T15:51:39;12.80;99.90
21481;DHT22;10902;48.158;8.634;2024-03-08T15:54:26;11.60;99.90
21481;DHT22;10902;48.158;8.634;2024-03-08T15:57:11;10.90;99.90
21481;DHT22;10902;48.158;8.634;2024-03-08T16:00:03;10.50;99.90
21481;DHT22;10902;48.158;8.634;2024-03-08T16:02:57;10.00;99.90
21481;DHT22;10902;48.158;8.634;2024-03-08T16:05:43;9.70;99.90
21481;DHT22;10902;48.158;8.634;2024-03-08T16:08:29;9.50;99.90
21481;DHT22;10902;48.158;8.634;2024-03-08T16:11:16;9.30;99.90
21481;DHT22;10902;48.158;8.634;2024-03-08T16:14:02;9.10;99.90
21481;DHT22;10902;48.158;8.634;2024-03-08T16:16:48;8.90;99.90
21481;DHT22;10902;48.158;8.634;2024-03-08T16:19:35;8.80;99.90
21481;DHT22;10902;48.158;8.634;2024-03-08T16:22:21;8.70;99.90
21481;DHT22;10902;48.158;8.634;2024-03-08T16:25:07;8.50;99.90
21481;DHT22;10902;48.158;8.634;2024-03-08T16:27:57;8.40;99.90
21481;DHT22;10902;48.158;8.634;2024-03-08T16:30:44;8.70;99.90
21481;DHT22;10902;48.158;8.634;2024-03-08T16:33:39;9.20;99.90
21481;DHT22;10902;48.158;8.634;2024-03-08T16:36:25;9.70;99.90
21481;DHT22;10902;48.158;8.634;2024-03-08T16:39:12;10.30;99.90
21481;DHT22;10902;48.158;8.634;2024-03-08T16:41:58;10.10;99.90
21481;DHT22;10902;48.158;8.634;2024-03-08T16:44:43;10.30;99.90
21481;DHT22;10902;48.158;8.634;2024-03-08T16:47:29;10.10;99.90
21481;DHT22;10902;48.158;8.634;2024-03-08T16:50:18;9.40;99.90
21481;DHT22;10902;48.158;8.634;2024-03-08T16:53:04;8.70;99.90
21481;DHT22;10902;48.158;8.634;2024-03-08T16:55:49;8.30;99.90
21481;DHT22;10902;48.158;8.634;2024-03-08T16:58:37;8.10;99.90
21481;DHT22;10902;48.158;8.634;2024-03-08T17:01:22;7.90;99.90
21481;DHT22;10902;48.158;8.634;2024-03-08T17:04:08;7.80;99.90
21481;DHT22;10902;48.158;8.634;2024-03-08T17:06:54;7.60;99.90
21481;DHT22;10902;48.158;8.634;2024-03-08T17:09:40;7.30;99.90
21481;DHT22;10902;48.158;8.634;2024-03-08T17:12:26;7.10;99.90
21481;DHT22;10902;48.158;8.634;2024-03-08T17:15:12;6.70;99.90
21481;DHT22;10902;48.158;8.634;2024-03-08T17:18:00;6.40;99.90
21481;DHT22;10902;48.158;8.634;2024-03-08T17:20:50;6.10;99.90
21481;DHT22;10902;48.158;8.634;2024-03-08T17:23:36;5.80;99.90
21481;DHT22;10902;48.158;8.634;2024-03-08T17:26:22;5.50;99.90
21481;DHT22;10902;48.158;8.634;2024-03-08T17:29:09;5.40;99.90
21481;DHT22;10902;48.158;8.634;2024-03-08T17:31:55;5.20;99.90
21481;DHT22;10902;48.158;8.634;2024-03-08T17:34:41;5.10;99.90
21481;DHT22;10902;48.158;8.634;2024-03-08T17:37:27;5.30;99.90
21481;DHT22;10902;48.158;8.634;2024-03-08T17:40:14;5.50;99.90
21481;DHT22;10902;48.158;8.634;2024-03-08T17:43:04;5.50;99.90